sensor_id;sensor_type;location;lat;lon;timestamp;P1;durP1;ratioP1;P2;durP2;ratioP2
48891;SDS011;50130;52.150;5.236;2022-10-22T00:01:15;10.4;;;6.4;;
48891;SDS011;50130;52.150;5.236;2022-10-22T00:04:27;17.3;;;6.7;;
48891;SDS011;50130;52.150;5.236;2022-10-22T00:06:04;19.5;;;6.8;;
48891;SDS011;50130;52.150;5.236;2022-10-22T00:07:41;14.5;;;6.7;;
48891;SDS011;50130;52.150;5.236;2022-10-22T00:10:53;10.6;;;5.6;;
48891;SDS011;50130;52.150;5.236;2022-10-22T00:12:29;16.2;;;7.1;;
48891;SDS011;50130;52.150;5.236;2022-10-22T00:14:05;13.8;;;6.2;;
48891;SDS011;50130;52.150;5.236;2022-10-22T00:17:18;13.7;;;6.5;;
48891;SDS011;50130;52.150;5.236;2022-10-22T00:18:55;12.4;;;5.8;;
48891;SDS011;50130;52.150;5.236;2022-10-22T00:20:31;12.0;;;6.0;;
48891;SDS011;50130;52.150;5.236;2022-10-22T00:22:10;14.5;;;6.5;;
48891;SDS011;50130;52.150;5.236;2022-10-22T00:25:23;11.4;;;6.3;;
48891;SDS011;50130;52.150;5.236;2022-10-22T00:26:59;14.6;;;6.6;;
48891;SDS011;50130;52.150;5.236;2022-10-22T00:28:36;12.5;;;6.9;;
48891;SDS011;50130;52.150;5.236;2022-10-22T00:31:50;10.21;;;6.1;;
48891;SDS011;50130;52.150;5.236;2022-10-22T00:33:27;12.5;;;6.1;;
48891;SDS011;50130;52.150;5.236;2022-10-22T00:35:05;13.5;;;6.0;;
48891;SDS011;50130;52.150;5.236;2022-10-22T00:36:42;12.8;;;6.7;;
48891;SDS011;50130;52.150;5.236;2022-10-22T00:39:54;9.81;;;5.8;;
48891;SDS011;50130;52.150;5.236;2022-10-22T00:41:30;12.5;;;6.7;;
48891;SDS011;50130;52.150;5.236;2022-10-22T00:43:08;15.3;;;7.1;;
48891;SDS011;50130;52.150;5.236;2022-10-22T00:46:58;11.5;;;5.5;;
48891;SDS011;50130;52.150;5.236;2022-10-22T00:48:35;18.11;;;7.2;;
48891;SDS011;50130;52.150;5.236;2022-10-22T00:50:12;16.5;;;6.1;;
48891;SDS011;50130;52.150;5.236;2022-10-22T00:51:52;11.0;;;6.4;;
48891;SDS011;50130;52.150;5.236;2022-10-22T00:53:29;12.3;;;6.8;;
48891;SDS011;50130;52.150;5.236;2022-10-22T00:56:48;12.5;;;6.5;;
48891;SDS011;50130;52.150;5.236;2022-10-22T00:58:26;10.3;;;5.6;;
48891;SDS011;50130;52.150;5.236;2022-10-22T01:00:04;14.3;;;6.1;;
48891;SDS011;50130;52.150;5.236;2022-10-22T01:03:20;11.5;;;6.1;;
48891;SDS011;50130;52.150;5.236;2022-10-22T01:04:57;13.5;;;6.6;;
48891;SDS011;50130;52.150;5.236;2022-10-22T01:06:34;14.4;;;5.3;;
48891;SDS011;50130;52.150;5.236;2022-10-22T01:08:14;11.6;;;6.5;;
48891;SDS011;50130;52.150;5.236;2022-10-22T01:11:52;11.4;;;5.5;;
48891;SDS011;50130;52.150;5.236;2022-10-22T01:13:41;11.8;;;6.1;;
48891;SDS011;50130;52.150;5.236;2022-10-22T01:15:30;12.1;;;5.5;;
48891;SDS011;50130;52.150;5.236;2022-10-22T01:17:15;12.3;;;5.4;;
48891;SDS011;50130;52.150;5.236;2022-10-22T01:19:00;12.2;;;5.3;;
48891;SDS011;50130;52.150;5.236;2022-10-22T01:21:03;12.0;;;5.11;;
48891;SDS011;50130;52.150;5.236;2022-10-22T01:22:51;13.9;;;6.3;;
48891;SDS011;50130;52.150;5.236;2022-10-22T01:26:34;16.5;;;6.4;;
48891;SDS011;50130;52.150;5.236;2022-10-22T01:30:27;14.6;;;6.4;;
48891;SDS011;50130;52.150;5.236;2022-10-22T01:32:06;15.4;;;6.3;;
48891;SDS011;50130;52.150;5.236;2022-10-22T01:33:46;9.9;;;5.5;;
48891;SDS011;50130;52.150;5.236;2022-10-22T01:38:45;13.0;;;6.6;;
48891;SDS011;50130;52.150;5.236;2022-10-22T01:40:24;12.4;;;5.6;;
48891;SDS011;50130;52.150;5.236;2022-10-22T01:42:03;12.0;;;5.8;;
48891;SDS011;50130;52.150;5.236;2022-10-22T01:43:40;13.6;;;5.8;;
48891;SDS011;50130;52.150;5.236;2022-10-22T01:46:56;13.0;;;6.3;;
48891;SDS011;50130;52.150;5.236;2022-10-22T01:48:44;13.4;;;6.7;;
48891;SDS011;50130;52.150;5.236;2022-10-22T01:50:42;12.0;;;5.4;;
48891;SDS011;50130;52.150;5.236;2022-10-22T01:52:41;10.5;;;5.11;;
48891;SDS011;50130;52.150;5.236;2022-10-22T01:54:34;13.8;;;5.6;;
48891;SDS011;50130;52.150;5.236;2022-10-22T01:56:26;14.5;;;6.1;;
48891;SDS011;50130;52.150;5.236;2022-10-22T01:58:21;16.0;;;5.5;;
48891;SDS011;50130;52.150;5.236;2022-10-22T02:01:52;13.6;;;6.0;;
48891;SDS011;50130;52.150;5.236;2022-10-22T02:03:37;10.21;;;5.2;;
48891;SDS011;50130;52.150;5.236;2022-10-22T02:05:20;15.1;;;5.8;;
48891;SDS011;50130;52.150;5.236;2022-10-22T02:10:20;10.6;;;4.41;;
48891;SDS011;50130;52.150;5.236;2022-10-22T02:11:58;10.7;;;4.7;;
48891;SDS011;50130;52.150;5.236;2022-10-22T02:13:40;10.7;;;5.3;;
48891;SDS011;50130;52.150;5.236;2022-10-22T02:15:19;11.2;;;4.5;;
48891;SDS011;50130;52.150;5.236;2022-10-22T02:18:36;14.3;;;5.2;;
48891;SDS011;50130;52.150;5.236;2022-10-22T02:20:17;7.9;;;4.5;;
48891;SDS011;50130;52.150;5.236;2022-10-22T02:21:58;10.21;;;4.61;;
48891;SDS011;50130;52.150;5.236;2022-10-22T02:23:34;15.2;;;5.11;;
48891;SDS011;50130;52.150;5.236;2022-10-22T02:26:50;15.2;;;4.91;;
48891;SDS011;50130;52.150;5.236;2022-10-22T02:28:35;14.8;;;4.5;;
48891;SDS011;50130;52.150;5.236;2022-10-22T02:30:19;13.1;;;4.91;;
48891;SDS011;50130;52.150;5.236;2022-10-22T02:31:58;9.71;;;4.1;;
48891;SDS011;50130;52.150;5.236;2022-10-22T02:35:21;11.1;;;4.8;;
48891;SDS011;50130;52.150;5.236;2022-10-22T02:37:01;15.0;;;4.91;;
48891;SDS011;50130;52.150;5.236;2022-10-22T02:38:39;13.6;;;4.41;;
48891;SDS011;50130;52.150;5.236;2022-10-22T02:40:17;12.6;;;4.5;;
48891;SDS011;50130;52.150;5.236;2022-10-22T02:43:37;9.9;;;4.0;;
48891;SDS011;50130;52.150;5.236;2022-10-22T02:45:17;11.0;;;4.3;;
48891;SDS011;50130;52.150;5.236;2022-10-22T02:46:54;13.0;;;5.3;;
48891;SDS011;50130;52.150;5.236;2022-10-22T02:48:30;11.2;;;4.5;;
48891;SDS011;50130;52.150;5.236;2022-10-22T02:51:44;11.2;;;4.91;;
48891;SDS011;50130;52.150;5.236;2022-10-22T02:53:20;12.9;;;5.11;;
48891;SDS011;50130;52.150;5.236;2022-10-22T02:54:56;11.9;;;4.7;;
48891;SDS011;50130;52.150;5.236;2022-10-22T02:58:08;12.1;;;4.61;;
48891;SDS011;50130;52.150;5.236;2022-10-22T02:59:44;13.2;;;5.3;;
48891;SDS011;50130;52.150;5.236;2022-10-22T03:01:20;13.0;;;5.4;;
48891;SDS011;50130;52.150;5.236;2022-10-22T03:04:33;11.4;;;4.91;;
48891;SDS011;50130;52.150;5.236;2022-10-22T03:06:10;14.4;;;5.0;;
48891;SDS011;50130;52.150;5.236;2022-10-22T03:07:46;13.6;;;6.2;;
48891;SDS011;50130;52.150;5.236;2022-10-22T03:10:58;13.9;;;5.6;;
48891;SDS011;50130;52.150;5.236;2022-10-22T03:12:35;13.4;;;5.0;;
48891;SDS011;50130;52.150;5.236;2022-10-22T03:14:11;12.4;;;5.4;;
48891;SDS011;50130;52.150;5.236;2022-10-22T03:15:47;14.0;;;5.4;;
48891;SDS011;50130;52.150;5.236;2022-10-22T03:19:00;10.8;;;4.61;;
48891;SDS011;50130;52.150;5.236;2022-10-22T03:20:36;11.0;;;5.4;;
48891;SDS011;50130;52.150;5.236;2022-10-22T03:22:14;15.9;;;5.6;;
48891;SDS011;50130;52.150;5.236;2022-10-22T03:25:34;16.5;;;6.0;;
48891;SDS011;50130;52.150;5.236;2022-10-22T03:27:11;15.3;;;6.5;;
48891;SDS011;50130;52.150;5.236;2022-10-22T03:28:52;16.8;;;6.4;;
48891;SDS011;50130;52.150;5.236;2022-10-22T03:30:29;11.7;;;5.4;;
48891;SDS011;50130;52.150;5.236;2022-10-22T03:33:42;12.3;;;6.2;;
48891;SDS011;50130;52.150;5.236;2022-10-22T03:35:19;9.9;;;5.4;;
48891;SDS011;50130;52.150;5.236;2022-10-22T03:36:55;14.8;;;6.1;;
48891;SDS011;50130;52.150;5.236;2022-10-22T03:40:11;11.9;;;4.8;;
48891;SDS011;50130;52.150;5.236;2022-10-22T03:41:48;16.4;;;6.9;;
48891;SDS011;50130;52.150;5.236;2022-10-22T03:43:27;12.2;;;6.0;;
48891;SDS011;50130;52.150;5.236;2022-10-22T03:45:04;11.3;;;5.4;;
48891;SDS011;50130;52.150;5.236;2022-10-22T03:48:18;15.4;;;6.8;;
48891;SDS011;50130;52.150;5.236;2022-10-22T03:49:54;14.6;;;6.4;;
48891;SDS011;50130;52.150;5.236;2022-10-22T03:51:30;14.5;;;5.8;;
48891;SDS011;50130;52.150;5.236;2022-10-22T03:54:46;14.4;;;5.11;;
48891;SDS011;50130;52.150;5.236;2022-10-22T03:56:22;13.5;;;6.5;;
48891;SDS011;50130;52.150;5.236;2022-10-22T03:57:59;15.1;;;7.0;;
48891;SDS011;50130;52.150;5.236;2022-10-22T03:59:35;14.2;;;6.2;;
48891;SDS011;50130;52.150;5.236;2022-10-22T04:02:49;17.41;;;6.2;;
48891;SDS011;50130;52.150;5.236;2022-10-22T04:04:25;13.8;;;7.3;;
48891;SDS011;50130;52.150;5.236;2022-10-22T04:06:02;15.5;;;6.9;;
48891;SDS011;50130;52.150;5.236;2022-10-22T04:09:16;15.0;;;6.7;;
48891;SDS011;50130;52.150;5.236;2022-10-22T04:10:52;11.2;;;6.1;;
48891;SDS011;50130;52.150;5.236;2022-10-22T04:12:28;15.5;;;6.8;;
48891;SDS011;50130;52.150;5.236;2022-10-22T04:15:40;19.7;;;7.2;;
48891;SDS011;50130;52.150;5.236;2022-10-22T04:17:17;14.1;;;6.8;;
48891;SDS011;50130;52.150;5.236;2022-10-22T04:18:53;15.8;;;6.8;;
48891;SDS011;50130;52.150;5.236;2022-10-22T04:22:05;13.8;;;6.3;;
48891;SDS011;50130;52.150;5.236;2022-10-22T04:23:43;14.6;;;7.0;;
48891;SDS011;50130;52.150;5.236;2022-10-22T04:25:20;11.3;;;6.4;;
48891;SDS011;50130;52.150;5.236;2022-10-22T04:26:57;11.6;;;5.6;;
48891;SDS011;50130;52.150;5.236;2022-10-22T04:30:10;13.4;;;5.9;;
48891;SDS011;50130;52.150;5.236;2022-10-22T04:31:47;17.91;;;6.7;;
48891;SDS011;50130;52.150;5.236;2022-10-22T04:33:23;14.5;;;7.2;;
48891;SDS011;50130;52.150;5.236;2022-10-22T04:36:36;14.6;;;6.8;;
48891;SDS011;50130;52.150;5.236;2022-10-22T04:38:12;18.91;;;7.7;;
48891;SDS011;50130;52.150;5.236;2022-10-22T04:39:49;14.5;;;6.2;;
48891;SDS011;50130;52.150;5.236;2022-10-22T04:43:04;15.9;;;6.2;;
48891;SDS011;50130;52.150;5.236;2022-10-22T04:44:40;16.9;;;6.6;;
48891;SDS011;50130;52.150;5.236;2022-10-22T04:46:17;13.2;;;5.9;;
48891;SDS011;50130;52.150;5.236;2022-10-22T04:47:53;15.9;;;6.8;;
48891;SDS011;50130;52.150;5.236;2022-10-22T04:51:06;16.7;;;6.7;;
48891;SDS011;50130;52.150;5.236;2022-10-22T04:52:45;14.4;;;6.8;;
48891;SDS011;50130;52.150;5.236;2022-10-22T04:54:21;16.9;;;8.2;;
48891;SDS011;50130;52.150;5.236;2022-10-22T04:57:42;14.7;;;6.3;;
48891;SDS011;50130;52.150;5.236;2022-10-22T04:59:18;14.9;;;6.7;;
48891;SDS011;50130;52.150;5.236;2022-10-22T05:00:55;14.4;;;6.8;;
48891;SDS011;50130;52.150;5.236;2022-10-22T05:02:31;16.7;;;6.7;;
48891;SDS011;50130;52.150;5.236;2022-10-22T05:05:46;15.7;;;6.7;;
48891;SDS011;50130;52.150;5.236;2022-10-22T05:07:22;19.7;;;7.3;;
48891;SDS011;50130;52.150;5.236;2022-10-22T05:08:59;12.0;;;5.6;;
48891;SDS011;50130;52.150;5.236;2022-10-22T05:12:15;15.1;;;6.4;;
48891;SDS011;50130;52.150;5.236;2022-10-22T05:13:51;14.5;;;6.0;;
48891;SDS011;50130;52.150;5.236;2022-10-22T05:15:27;14.6;;;6.8;;
48891;SDS011;50130;52.150;5.236;2022-10-22T05:17:03;13.1;;;6.3;;
48891;SDS011;50130;52.150;5.236;2022-10-22T05:20:17;18.8;;;6.4;;
48891;SDS011;50130;52.150;5.236;2022-10-22T05:21:54;20.3;;;7.1;;
48891;SDS011;50130;52.150;5.236;2022-10-22T05:23:32;14.3;;;6.6;;
48891;SDS011;50130;52.150;5.236;2022-10-22T05:26:44;22.0;;;6.9;;
48891;SDS011;50130;52.150;5.236;2022-10-22T05:28:20;17.2;;;6.8;;
48891;SDS011;50130;52.150;5.236;2022-10-22T05:29:56;13.4;;;5.8;;
48891;SDS011;50130;52.150;5.236;2022-10-22T05:33:09;15.9;;;6.9;;
48891;SDS011;50130;52.150;5.236;2022-10-22T05:34:45;16.11;;;6.4;;
48891;SDS011;50130;52.150;5.236;2022-10-22T05:36:21;15.6;;;6.8;;
48891;SDS011;50130;52.150;5.236;2022-10-22T05:37:58;20.6;;;7.2;;
48891;SDS011;50130;52.150;5.236;2022-10-22T05:41:12;11.1;;;5.4;;
48891;SDS011;50130;52.150;5.236;2022-10-22T05:42:52;16.7;;;6.0;;
48891;SDS011;50130;52.150;5.236;2022-10-22T05:44:28;15.9;;;6.8;;
48891;SDS011;50130;52.150;5.236;2022-10-22T05:47:43;17.2;;;7.0;;
48891;SDS011;50130;52.150;5.236;2022-10-22T05:49:19;13.8;;;6.5;;
48891;SDS011;50130;52.150;5.236;2022-10-22T05:50:56;21.4;;;7.5;;
48891;SDS011;50130;52.150;5.236;2022-10-22T05:54:10;12.2;;;5.8;;
48891;SDS011;50130;52.150;5.236;2022-10-22T05:55:54;17.41;;;6.5;;
48891;SDS011;50130;52.150;5.236;2022-10-22T05:57:30;18.7;;;6.6;;
48891;SDS011;50130;52.150;5.236;2022-10-22T05:59:07;14.5;;;5.5;;
48891;SDS011;50130;52.150;5.236;2022-10-22T06:02:21;20.5;;;6.9;;
48891;SDS011;50130;52.150;5.236;2022-10-22T06:03:58;12.4;;;5.5;;
48891;SDS011;50130;52.150;5.236;2022-10-22T06:05:37;18.11;;;7.0;;
48891;SDS011;50130;52.150;5.236;2022-10-22T06:07:14;16.9;;;6.6;;
48891;SDS011;50130;52.150;5.236;2022-10-22T06:10:30;17.91;;;6.2;;
48891;SDS011;50130;52.150;5.236;2022-10-22T06:12:09;13.0;;;5.6;;
48891;SDS011;50130;52.150;5.236;2022-10-22T06:13:45;20.9;;;6.6;;
48891;SDS011;50130;52.150;5.236;2022-10-22T06:16:59;13.8;;;6.2;;
48891;SDS011;50130;52.150;5.236;2022-10-22T06:18:36;14.9;;;6.6;;
48891;SDS011;50130;52.150;5.236;2022-10-22T06:20:12;17.0;;;6.4;;
48891;SDS011;50130;52.150;5.236;2022-10-22T06:23:25;13.4;;;5.9;;
48891;SDS011;50130;52.150;5.236;2022-10-22T06:25:01;18.41;;;6.8;;
48891;SDS011;50130;52.150;5.236;2022-10-22T06:26:37;16.0;;;6.4;;
48891;SDS011;50130;52.150;5.236;2022-10-22T06:28:14;14.2;;;5.9;;
48891;SDS011;50130;52.150;5.236;2022-10-22T06:31:27;19.0;;;6.5;;
48891;SDS011;50130;52.150;5.236;2022-10-22T06:33:04;17.5;;;6.1;;
48891;SDS011;50130;52.150;5.236;2022-10-22T06:34:40;24.0;;;6.8;;
48891;SDS011;50130;52.150;5.236;2022-10-22T06:37:55;19.2;;;6.8;;
48891;SDS011;50130;52.150;5.236;2022-10-22T06:39:31;18.3;;;6.4;;
48891;SDS011;50130;52.150;5.236;2022-10-22T06:41:09;18.61;;;6.4;;
48891;SDS011;50130;52.150;5.236;2022-10-22T06:42:47;13.1;;;5.6;;
48891;SDS011;50130;52.150;5.236;2022-10-22T06:46:00;14.8;;;5.9;;
48891;SDS011;50130;52.150;5.236;2022-10-22T06:47:37;17.11;;;6.7;;
48891;SDS011;50130;52.150;5.236;2022-10-22T06:49:14;15.0;;;6.1;;
48891;SDS011;50130;52.150;5.236;2022-10-22T06:52:28;14.9;;;6.5;;
48891;SDS011;50130;52.150;5.236;2022-10-22T06:54:04;17.5;;;6.6;;
48891;SDS011;50130;52.150;5.236;2022-10-22T06:55:40;16.0;;;6.5;;
48891;SDS011;50130;52.150;5.236;2022-10-22T06:58:54;17.7;;;5.7;;
48891;SDS011;50130;52.150;5.236;2022-10-22T07:00:31;15.4;;;5.11;;
48891;SDS011;50130;52.150;5.236;2022-10-22T07:02:07;16.0;;;5.6;;
48891;SDS011;50130;52.150;5.236;2022-10-22T07:03:44;12.7;;;5.2;;
48891;SDS011;50130;52.150;5.236;2022-10-22T07:06:56;15.3;;;5.6;;
48891;SDS011;50130;52.150;5.236;2022-10-22T07:08:33;18.7;;;5.8;;
48891;SDS011;50130;52.150;5.236;2022-10-22T07:10:09;11.7;;;4.7;;
48891;SDS011;50130;52.150;5.236;2022-10-22T07:13:22;10.6;;;4.61;;
48891;SDS011;50130;52.150;5.236;2022-10-22T07:14:58;14.5;;;5.11;;
48891;SDS011;50130;52.150;5.236;2022-10-22T07:16:34;12.7;;;5.3;;
48891;SDS011;50130;52.150;5.236;2022-10-22T07:19:46;15.4;;;5.11;;
48891;SDS011;50130;52.150;5.236;2022-10-22T07:21:22;14.5;;;5.2;;
48891;SDS011;50130;52.150;5.236;2022-10-22T07:22:58;17.0;;;5.11;;
48891;SDS011;50130;52.150;5.236;2022-10-22T07:26:12;14.9;;;4.8;;
48891;SDS011;50130;52.150;5.236;2022-10-22T07:27:51;14.4;;;4.91;;
48891;SDS011;50130;52.150;5.236;2022-10-22T07:29:27;13.2;;;4.2;;
48891;SDS011;50130;52.150;5.236;2022-10-22T07:31:03;12.1;;;4.5;;
48891;SDS011;50130;52.150;5.236;2022-10-22T07:34:16;14.1;;;4.41;;
48891;SDS011;50130;52.150;5.236;2022-10-22T07:35:56;16.4;;;4.8;;
48891;SDS011;50130;52.150;5.236;2022-10-22T07:37:33;12.2;;;4.1;;
48891;SDS011;50130;52.150;5.236;2022-10-22T07:40:45;13.1;;;4.0;;
48891;SDS011;50130;52.150;5.236;2022-10-22T07:42:21;10.1;;;4.41;;
48891;SDS011;50130;52.150;5.236;2022-10-22T07:43:57;14.1;;;4.91;;
48891;SDS011;50130;52.150;5.236;2022-10-22T07:45:34;15.4;;;4.3;;
48891;SDS011;50130;52.150;5.236;2022-10-22T07:48:46;14.0;;;4.5;;
48891;SDS011;50130;52.150;5.236;2022-10-22T07:50:23;15.7;;;4.2;;
48891;SDS011;50130;52.150;5.236;2022-10-22T07:51:59;15.2;;;4.3;;
48891;SDS011;50130;52.150;5.236;2022-10-22T07:55:13;14.0;;;3.7;;
48891;SDS011;50130;52.150;5.236;2022-10-22T07:56:50;15.3;;;4.2;;
48891;SDS011;50130;52.150;5.236;2022-10-22T07:58:28;14.6;;;4.61;;
48891;SDS011;50130;52.150;5.236;2022-10-22T08:01:43;13.1;;;4.0;;
48891;SDS011;50130;52.150;5.236;2022-10-22T08:03:19;13.3;;;4.3;;
48891;SDS011;50130;52.150;5.236;2022-10-22T08:04:56;16.3;;;4.2;;
48891;SDS011;50130;52.150;5.236;2022-10-22T08:06:32;11.6;;;3.5;;
48891;SDS011;50130;52.150;5.236;2022-10-22T08:09:45;14.2;;;3.3;;
48891;SDS011;50130;52.150;5.236;2022-10-22T08:11:21;12.7;;;4.0;;
48891;SDS011;50130;52.150;5.236;2022-10-22T08:12:57;14.9;;;3.8;;
48891;SDS011;50130;52.150;5.236;2022-10-22T08:16:09;12.6;;;3.6;;
48891;SDS011;50130;52.150;5.236;2022-10-22T08:17:46;16.2;;;3.8;;
48891;SDS011;50130;52.150;5.236;2022-10-22T08:19:22;11.6;;;3.4;;
48891;SDS011;50130;52.150;5.236;2022-10-22T08:22:34;15.8;;;4.0;;
48891;SDS011;50130;52.150;5.236;2022-10-22T08:24:10;15.3;;;3.6;;
48891;SDS011;50130;52.150;5.236;2022-10-22T08:25:47;12.6;;;3.1;;
48891;SDS011;50130;52.150;5.236;2022-10-22T08:27:23;13.4;;;3.6;;
48891;SDS011;50130;52.150;5.236;2022-10-22T08:30:37;10.5;;;3.3;;
48891;SDS011;50130;52.150;5.236;2022-10-22T08:32:13;15.2;;;3.6;;
48891;SDS011;50130;52.150;5.236;2022-10-22T08:33:49;12.1;;;3.3;;
48891;SDS011;50130;52.150;5.236;2022-10-22T08:37:01;14.9;;;3.4;;
48891;SDS011;50130;52.150;5.236;2022-10-22T08:38:38;13.2;;;3.2;;
48891;SDS011;50130;52.150;5.236;2022-10-22T08:40:17;12.4;;;3.4;;
48891;SDS011;50130;52.150;5.236;2022-10-22T08:44:00;15.9;;;3.9;;
48891;SDS011;50130;52.150;5.236;2022-10-22T08:46:57;15.0;;;3.6;;
48891;SDS011;50130;52.150;5.236;2022-10-22T08:48:47;14.9;;;3.1;;
48891;SDS011;50130;52.150;5.236;2022-10-22T08:50:27;14.6;;;3.5;;
48891;SDS011;50130;52.150;5.236;2022-10-22T08:53:59;13.6;;;3.2;;
48891;SDS011;50130;52.150;5.236;2022-10-22T08:55:48;11.5;;;3.2;;
48891;SDS011;50130;52.150;5.236;2022-10-22T08:57:38;11.8;;;3.2;;
48891;SDS011;50130;52.150;5.236;2022-10-22T08:59:25;12.2;;;3.0;;
48891;SDS011;50130;52.150;5.236;2022-10-22T09:01:09;12.0;;;3.5;;
48891;SDS011;50130;52.150;5.236;2022-10-22T09:04:41;14.1;;;3.2;;
48891;SDS011;50130;52.150;5.236;2022-10-22T09:06:27;15.1;;;3.6;;
48891;SDS011;50130;52.150;5.236;2022-10-22T09:08:07;14.0;;;3.0;;
48891;SDS011;50130;52.150;5.236;2022-10-22T09:09:48;11.9;;;3.3;;
48891;SDS011;50130;52.150;5.236;2022-10-22T09:11:29;18.0;;;3.9;;
48891;SDS011;50130;52.150;5.236;2022-10-22T09:14:49;14.5;;;3.2;;
48891;SDS011;50130;52.150;5.236;2022-10-22T09:16:29;12.5;;;3.2;;
48891;SDS011;50130;52.150;5.236;2022-10-22T09:18:15;11.5;;;3.2;;
48891;SDS011;50130;52.150;5.236;2022-10-22T09:20:07;13.3;;;3.3;;
48891;SDS011;50130;52.150;5.236;2022-10-22T09:21:52;14.6;;;3.5;;
48891;SDS011;50130;52.150;5.236;2022-10-22T09:25:31;12.4;;;3.3;;
48891;SDS011;50130;52.150;5.236;2022-10-22T09:27:11;12.6;;;3.6;;
48891;SDS011;50130;52.150;5.236;2022-10-22T09:28:51;12.8;;;3.4;;
48891;SDS011;50130;52.150;5.236;2022-10-22T09:30:30;13.0;;;3.3;;
48891;SDS011;50130;52.150;5.236;2022-10-22T09:33:49;14.1;;;3.1;;
48891;SDS011;50130;52.150;5.236;2022-10-22T09:35:26;15.9;;;3.5;;
48891;SDS011;50130;52.150;5.236;2022-10-22T09:37:03;15.2;;;3.8;;
48891;SDS011;50130;52.150;5.236;2022-10-22T09:38:44;13.7;;;3.2;;
48891;SDS011;50130;52.150;5.236;2022-10-22T09:42:00;12.7;;;3.0;;
48891;SDS011;50130;52.150;5.236;2022-10-22T09:43:37;14.3;;;3.3;;
48891;SDS011;50130;52.150;5.236;2022-10-22T09:45:15;16.0;;;4.61;;
48891;SDS011;50130;52.150;5.236;2022-10-22T09:46:55;14.9;;;3.9;;
48891;SDS011;50130;52.150;5.236;2022-10-22T09:50:17;12.7;;;3.1;;
48891;SDS011;50130;52.150;5.236;2022-10-22T09:52:21;12.3;;;3.3;;
48891;SDS011;50130;52.150;5.236;2022-10-22T09:55:51;11.8;;;2.9;;
48891;SDS011;50130;52.150;5.236;2022-10-22T09:57:30;12.0;;;2.7;;
48891;SDS011;50130;52.150;5.236;2022-10-22T10:00:51;16.3;;;3.3;;
48891;SDS011;50130;52.150;5.236;2022-10-22T10:02:31;10.6;;;3.1;;
48891;SDS011;50130;52.150;5.236;2022-10-22T10:04:08;11.9;;;2.8;;
48891;SDS011;50130;52.150;5.236;2022-10-22T10:05:48;11.2;;;2.7;;
48891;SDS011;50130;52.150;5.236;2022-10-22T10:09:09;14.4;;;3.0;;
48891;SDS011;50130;52.150;5.236;2022-10-22T10:10:51;10.3;;;2.31;;
48891;SDS011;50130;52.150;5.236;2022-10-22T10:12:35;12.0;;;3.0;;
48891;SDS011;50130;52.150;5.236;2022-10-22T10:14:24;11.0;;;3.6;;
48891;SDS011;50130;52.150;5.236;2022-10-22T10:16:12;12.4;;;3.1;;
48891;SDS011;50130;52.150;5.236;2022-10-22T10:19:55;10.9;;;3.1;;
48891;SDS011;50130;52.150;5.236;2022-10-22T10:21:47;14.5;;;3.1;;
48891;SDS011;50130;52.150;5.236;2022-10-22T10:23:35;11.0;;;2.7;;
48891;SDS011;50130;52.150;5.236;2022-10-22T10:25:57;19.11;;;3.5;;
48891;SDS011;50130;52.150;5.236;2022-10-22T10:27:40;13.1;;;2.9;;
48891;SDS011;50130;52.150;5.236;2022-10-22T10:29:26;11.4;;;2.8;;
48891;SDS011;50130;52.150;5.236;2022-10-22T10:31:19;13.3;;;2.9;;
48891;SDS011;50130;52.150;5.236;2022-10-22T10:33:10;11.8;;;2.9;;
48891;SDS011;50130;52.150;5.236;2022-10-22T10:35:01;14.9;;;3.3;;
48891;SDS011;50130;52.150;5.236;2022-10-22T10:38:38;13.1;;;2.6;;
48891;SDS011;50130;52.150;5.236;2022-10-22T10:40:26;11.3;;;2.4;;
48891;SDS011;50130;52.150;5.236;2022-10-22T10:42:19;11.5;;;2.5;;
48891;SDS011;50130;52.150;5.236;2022-10-22T10:44:08;10.3;;;2.8;;
48891;SDS011;50130;52.150;5.236;2022-10-22T10:46:11;11.0;;;2.31;;
48891;SDS011;50130;52.150;5.236;2022-10-22T10:48:08;10.9;;;2.21;;
48891;SDS011;50130;52.150;5.236;2022-10-22T10:50:36;10.7;;;2.8;;
48891;SDS011;50130;52.150;5.236;2022-10-22T10:52:25;12.0;;;2.9;;
48891;SDS011;50130;52.150;5.236;2022-10-22T10:54:21;11.9;;;3.1;;
48891;SDS011;50130;52.150;5.236;2022-10-22T10:56:06;10.7;;;2.4;;
48891;SDS011;50130;52.150;5.236;2022-10-22T10:58:02;11.6;;;2.5;;
48891;SDS011;50130;52.150;5.236;2022-10-22T11:01:41;10.8;;;2.4;;
48891;SDS011;50130;52.150;5.236;2022-10-22T11:03:33;11.5;;;2.5;;
48891;SDS011;50130;52.150;5.236;2022-10-22T11:05:27;10.8;;;2.8;;
48891;SDS011;50130;52.150;5.236;2022-10-22T11:07:10;10.1;;;2.4;;
48891;SDS011;50130;52.150;5.236;2022-10-22T11:08:55;11.3;;;2.4;;
48891;SDS011;50130;52.150;5.236;2022-10-22T11:10:35;14.2;;;2.5;;
48891;SDS011;50130;52.150;5.236;2022-10-22T11:14:02;10.8;;;2.4;;
48891;SDS011;50130;52.150;5.236;2022-10-22T11:15:46;13.3;;;2.5;;
48891;SDS011;50130;52.150;5.236;2022-10-22T11:17:28;12.4;;;2.6;;
48891;SDS011;50130;52.150;5.236;2022-10-22T11:19:15;10.1;;;2.1;;
48891;SDS011;50130;52.150;5.236;2022-10-22T11:21:03;11.4;;;2.21;;
48891;SDS011;50130;52.150;5.236;2022-10-22T11:24:30;12.1;;;2.21;;
48891;SDS011;50130;52.150;5.236;2022-10-22T11:26:16;11.4;;;2.31;;
48891;SDS011;50130;52.150;5.236;2022-10-22T11:28:10;15.0;;;2.8;;
48891;SDS011;50130;52.150;5.236;2022-10-22T11:29:53;9.5;;;2.31;;
48891;SDS011;50130;52.150;5.236;2022-10-22T11:31:35;13.8;;;2.5;;
48891;SDS011;50130;52.150;5.236;2022-10-22T11:34:57;12.9;;;2.8;;
48891;SDS011;50130;52.150;5.236;2022-10-22T11:36:36;13.2;;;3.0;;
48891;SDS011;50130;52.150;5.236;2022-10-22T11:38:14;12.2;;;2.6;;
48891;SDS011;50130;52.150;5.236;2022-10-22T11:39:56;10.4;;;2.9;;
48891;SDS011;50130;52.150;5.236;2022-10-22T11:43:24;15.6;;;3.0;;
48891;SDS011;50130;52.150;5.236;2022-10-22T11:45:04;13.0;;;3.1;;
48891;SDS011;50130;52.150;5.236;2022-10-22T11:47:07;14.7;;;2.4;;
48891;SDS011;50130;52.150;5.236;2022-10-22T11:49:00;11.3;;;2.8;;
48891;SDS011;50130;52.150;5.236;2022-10-22T11:50:44;9.81;;;2.4;;
48891;SDS011;50130;52.150;5.236;2022-10-22T11:52:26;14.9;;;3.5;;
48891;SDS011;50130;52.150;5.236;2022-10-22T11:56:21;10.9;;;2.4;;
48891;SDS011;50130;52.150;5.236;2022-10-22T11:58:01;13.3;;;3.0;;
48891;SDS011;50130;52.150;5.236;2022-10-22T12:00:05;15.8;;;3.1;;
48891;SDS011;50130;52.150;5.236;2022-10-22T12:01:45;15.5;;;3.2;;
48891;SDS011;50130;52.150;5.236;2022-10-22T12:03:23;16.11;;;3.0;;
48891;SDS011;50130;52.150;5.236;2022-10-22T12:05:34;15.4;;;2.8;;
48891;SDS011;50130;52.150;5.236;2022-10-22T12:07:29;12.8;;;3.1;;
48891;SDS011;50130;52.150;5.236;2022-10-22T12:09:29;12.9;;;2.8;;
48891;SDS011;50130;52.150;5.236;2022-10-22T12:12:54;11.8;;;2.7;;
48891;SDS011;50130;52.150;5.236;2022-10-22T12:14:32;15.0;;;3.4;;
48891;SDS011;50130;52.150;5.236;2022-10-22T12:16:26;15.5;;;3.4;;
48891;SDS011;50130;52.150;5.236;2022-10-22T12:18:10;18.3;;;3.6;;
48891;SDS011;50130;52.150;5.236;2022-10-22T12:19:48;14.9;;;3.5;;
48891;SDS011;50130;52.150;5.236;2022-10-22T12:23:08;14.1;;;3.0;;
48891;SDS011;50130;52.150;5.236;2022-10-22T12:24:49;13.6;;;3.8;;
48891;SDS011;50130;52.150;5.236;2022-10-22T12:26:29;16.11;;;3.3;;
48891;SDS011;50130;52.150;5.236;2022-10-22T12:28:09;19.11;;;3.6;;
48891;SDS011;50130;52.150;5.236;2022-10-22T12:31:34;13.1;;;3.2;;
48891;SDS011;50130;52.150;5.236;2022-10-22T12:33:16;13.1;;;2.7;;
48891;SDS011;50130;52.150;5.236;2022-10-22T12:34:55;14.3;;;3.9;;
48891;SDS011;50130;52.150;5.236;2022-10-22T12:36:33;15.9;;;3.7;;
48891;SDS011;50130;52.150;5.236;2022-10-22T12:39:50;17.2;;;3.4;;
48891;SDS011;50130;52.150;5.236;2022-10-22T12:41:30;14.6;;;3.4;;
48891;SDS011;50130;52.150;5.236;2022-10-22T12:43:10;16.4;;;3.3;;
48891;SDS011;50130;52.150;5.236;2022-10-22T12:44:53;15.7;;;3.0;;
48891;SDS011;50130;52.150;5.236;2022-10-22T12:48:13;13.3;;;3.4;;
48891;SDS011;50130;52.150;5.236;2022-10-22T12:49:52;15.3;;;3.5;;
48891;SDS011;50130;52.150;5.236;2022-10-22T12:51:28;15.5;;;3.2;;
48891;SDS011;50130;52.150;5.236;2022-10-22T12:53:06;15.7;;;3.1;;
48891;SDS011;50130;52.150;5.236;2022-10-22T12:56:28;13.7;;;3.2;;
48891;SDS011;50130;52.150;5.236;2022-10-22T12:58:10;13.0;;;2.5;;